createdAt,value
2023-03-18T00:01:55.808Z,99858.50
2023-03-18T00:04:22.386Z,99853.19
2023-03-18T00:06:48.822Z,99854.97
2023-03-18T00:09:15.261Z,99841.72
2023-03-18T00:11:41.870Z,99839.06
2023-03-18T00:14:09.736Z,99837.31
2023-03-18T00:16:37.113Z,99834.63
2023-03-18T00:19:04.172Z,99832.00
2023-03-18T00:21:31.674Z,99832.00
2023-03-18T00:23:58.754Z,99830.25
2023-03-18T00:26:27.030Z,99832.88
2023-03-18T00:28:56.529Z,99834.63
2023-03-18T00:31:23.869Z,99841.69
2023-03-18T00:33:50.548Z,99843.47
2023-03-18T00:36:28.040Z,99850.50
2023-03-18T00:39:03.157Z,99853.16
2023-03-18T00:41:33.042Z,99858.44
2023-03-18T00:43:59.545Z,99854.94
2023-03-18T00:46:29.213Z,99854.06
2023-03-18T00:48:58.597Z,99855.81
2023-03-18T00:51:27.692Z,99857.59
2023-03-18T00:53:57.092Z,99862.00
2023-03-18T00:56:28.402Z,99863.78
2023-03-18T00:58:55.456Z,99865.53
2023-03-18T01:01:23.062Z,99866.41
2023-03-18T01:03:51.079Z,99867.31
2023-03-18T01:06:22.591Z,99872.59
2023-03-18T01:08:50.085Z,99864.66
2023-03-18T01:11:16.958Z,99868.19
2023-03-18T01:13:44.269Z,99860.22
2023-03-18T01:16:11.067Z,99862.84
2023-03-18T01:18:38.372Z,99859.34
2023-03-18T01:21:05.081Z,99865.53
2023-03-18T01:23:37.376Z,99867.28
2023-03-18T01:26:05.106Z,99863.72
2023-03-18T01:28:32.661Z,99871.69
2023-03-18T01:31:00.566Z,99855.81
2023-03-18T01:33:28.783Z,99857.56
2023-03-18T01:36:03.705Z,99855.78
2023-03-18T01:38:33.647Z,99863.75
2023-03-18T01:41:10.425Z,99859.34
2023-03-18T01:43:40.849Z,99856.69
2023-03-18T01:46:31.189Z,99860.25
2023-03-18T01:49:00.273Z,99862.91
2023-03-18T01:51:27.332Z,99860.25
2023-03-18T01:53:56.013Z,99869.06
2023-03-18T01:56:22.554Z,99862.00
2023-03-18T01:58:53.730Z,99869.97
2023-03-18T02:01:26.301Z,99874.38
2023-03-18T02:03:55.362Z,99876.16
2023-03-18T02:06:22.901Z,99875.25
2023-03-18T02:08:56.715Z,99877.03
2023-03-18T02:13:54.808Z,99880.56
2023-03-18T02:16:27.513Z,99884.97
2023-03-18T02:19:02.006Z,99890.25
2023-03-18T02:21:43.657Z,99881.44
2023-03-18T02:24:27.492Z,99886.72
2023-03-18T02:27:24.115Z,99875.22
2023-03-18T02:29:54.360Z,99883.22
2023-03-18T02:32:21.999Z,99882.31
2023-03-18T02:34:49.061Z,99880.56
2023-03-18T02:37:15.808Z,99878.78
2023-03-18T02:39:43.012Z,99884.97
2023-03-18T02:42:14.325Z,99891.16
2023-03-18T02:44:47.510Z,99898.22
2023-03-18T02:47:47.255Z,99898.22
2023-03-18T02:50:13.745Z,99890.28
2023-03-18T02:52:40.512Z,99895.56
2023-03-18T02:55:08.215Z,99904.41
2023-03-18T02:57:36.200Z,99898.22
2023-03-18T03:00:02.707Z,99902.66
2023-03-18T03:02:29.408Z,99907.94
2023-03-18T03:04:56.392Z,99910.59
2023-03-18T03:07:27.725Z,99905.28
2023-03-18T03:09:54.889Z,99912.34
2023-03-18T03:12:23.079Z,99911.47
2023-03-18T03:14:53.948Z,99912.38
2023-03-18T03:17:20.412Z,99916.78
2023-03-18T03:19:46.924Z,99914.13
2023-03-18T03:22:14.220Z,99912.34
2023-03-18T03:24:40.718Z,99913.25
2023-03-18T03:27:07.698Z,99915.00
2023-03-18T03:29:34.425Z,99921.19
2023-03-18T03:32:02.071Z,99916.78
2023-03-18T03:34:29.459Z,99915.00
2023-03-18T03:36:57.317Z,99923.81
2023-03-18T03:39:25.750Z,99922.03
2023-03-18T03:41:53.120Z,99930.00
2023-03-18T03:44:19.586Z,99928.22
2023-03-18T03:46:49.054Z,99936.19
2023-03-18T03:49:15.684Z,99939.72
2023-03-18T03:51:42.463Z,99936.16
2023-03-18T03:54:08.979Z,99946.78
2023-03-18T03:56:35.452Z,99941.47
2023-03-18T03:59:02.294Z,99944.09
2023-03-18T04:01:47.611Z,99947.66
2023-03-18T04:04:14.263Z,99951.16
2023-03-18T04:06:40.903Z,99959.09
2023-03-18T04:09:07.390Z,99964.38
2023-03-18T04:11:34.097Z,99967.91
2023-03-18T04:14:01.059Z,99963.47
2023-03-18T04:16:28.438Z,99963.50
2023-03-18T04:18:54.959Z,99952.00
2023-03-18T04:21:23.414Z,99950.22
2023-03-18T04:23:53.172Z,99949.34
2023-03-18T04:26:20.588Z,99957.28
2023-03-18T04:28:48.211Z,99960.81
2023-03-18T04:31:16.626Z,99957.31
2023-03-18T04:33:44.674Z,99958.19
2023-03-18T04:36:11.469Z,99964.38
2023-03-18T04:38:38.147Z,99962.66
2023-03-18T04:41:06.719Z,99958.25
2023-03-18T04:43:33.855Z,99960.94
2023-03-18T04:46:02.271Z,99960.88
2023-03-18T04:48:33.205Z,99957.38
2023-03-18T04:51:02.734Z,99953.81
2023-03-18T04:53:31.201Z,99961.78
2023-03-18T04:55:57.746Z,99965.31
2023-03-18T04:58:30.820Z,99958.25
2023-03-18T05:01:06.719Z,99960.91
2023-03-18T05:03:37.128Z,99964.41
2023-03-18T05:06:05.164Z,99975.91
2023-03-18T05:08:53.095Z,99979.44
2023-03-18T05:11:21.497Z,99979.44
2023-03-18T05:13:49.083Z,99981.19
2023-03-18T05:16:18.450Z,99976.78
2023-03-18T05:18:47.215Z,99970.63
2023-03-18T05:21:14.666Z,99973.28
2023-03-18T05:23:41.483Z,99980.31
2023-03-18T05:26:07.944Z,99975.91
2023-03-18T05:28:35.529Z,99968.84
2023-03-18T05:31:12.997Z,99968.84
2023-03-18T05:33:42.487Z,99974.13
2023-03-18T05:36:10.900Z,99977.66
2023-03-18T05:38:47.047Z,99975.88
2023-03-18T05:41:13.889Z,99972.34
2023-03-18T05:43:42.586Z,99967.91
2023-03-18T05:46:09.625Z,99971.47
2023-03-18T05:48:48.759Z,99967.03
2023-03-18T05:51:16.027Z,99964.41
2023-03-18T05:53:42.563Z,99976.72
2023-03-18T05:56:28.723Z,99968.78
2023-03-18T05:58:58.665Z,99967.91
2023-03-18T06:01:33.030Z,99967.91
2023-03-18T06:04:01.031Z,99976.72
2023-03-18T06:06:27.780Z,99982.88
2023-03-18T06:08:56.220Z,99977.63
2023-03-18T06:11:24.327Z,99974.09
2023-03-18T06:13:52.140Z,99985.53
2023-03-18T06:16:19.287Z,99985.50
2023-03-18T06:18:46.238Z,99977.56
2023-03-18T06:21:15.367Z,99977.53
2023-03-18T06:23:42.103Z,99974.88
2023-03-18T06:26:08.967Z,99988.13
2023-03-18T06:28:44.556Z,99985.47
2023-03-18T06:31:11.364Z,99979.25
2023-03-18T06:33:38.960Z,99986.28
2023-03-18T06:36:08.336Z,99983.66
2023-03-18T06:38:35.091Z,99980.13
2023-03-18T06:41:02.503Z,99985.41
2023-03-18T06:43:33.301Z,99986.28
2023-03-18T06:46:01.145Z,100002.16
2023-03-18T06:48:28.874Z,99998.63
2023-03-18T06:50:56.656Z,100005.69
2023-03-18T06:53:29.174Z,100013.63
2023-03-18T06:55:56.768Z,100019.81
2023-03-18T06:58:27.209Z,100020.75
2023-03-18T07:01:01.638Z,100017.28
2023-03-18T07:03:34.194Z,100019.06
2023-03-18T07:06:01.206Z,100020.00
2023-03-18T07:08:29.144Z,100020.00
2023-03-18T07:10:57.585Z,100026.22
2023-03-18T07:13:25.438Z,100034.16
2023-03-18T07:15:52.484Z,100029.78
2023-03-18T07:18:19.639Z,100034.19
2023-03-18T07:20:46.552Z,100037.69
2023-03-18T07:23:14.103Z,100034.16
2023-03-18T07:25:42.031Z,100038.53
2023-03-18T07:28:08.525Z,100042.03
2023-03-18T07:30:35.022Z,100046.41
2023-03-18T07:33:02.470Z,100038.38
2023-03-18T07:35:29.110Z,100040.06
2023-03-18T07:37:57.121Z,100057.72
2023-03-18T07:40:24.276Z,100057.72
2023-03-18T07:42:53.601Z,100054.19
2023-03-18T07:45:20.471Z,100057.72
2023-03-18T07:47:47.353Z,100055.97
2023-03-18T07:50:14.795Z,100067.44
2023-03-18T07:52:41.890Z,100070.94
2023-03-18T07:55:09.195Z,100067.38
2023-03-18T07:57:36.650Z,100067.28
2023-03-18T08:00:08.012Z,100069.88
2023-03-18T08:02:41.350Z,100072.44
2023-03-18T08:05:09.834Z,100075.03
2023-03-18T08:07:36.600Z,100090.91
2023-03-18T08:10:03.644Z,100082.03
2023-03-18T08:12:41.598Z,100087.31
2023-03-18T08:15:16.178Z,100090.84
2023-03-18T08:17:42.880Z,100104.94
2023-03-18T08:20:10.262Z,100104.00
2023-03-18T08:22:36.788Z,100105.75
2023-03-18T08:25:03.326Z,100103.94
2023-03-18T08:27:29.752Z,100096.75
2023-03-18T08:29:56.995Z,100100.22
2023-03-18T08:32:23.438Z,100105.50
2023-03-18T08:34:50.092Z,100106.25
2023-03-18T08:37:16.660Z,100105.28
2023-03-18T08:39:44.455Z,100105.16
2023-03-18T08:42:11.137Z,100110.34
2023-03-18T08:44:40.298Z,100104.00
2023-03-18T08:47:08.171Z,100103.81
2023-03-18T08:49:34.815Z,100109.03
2023-03-18T08:52:01.464Z,100113.41
2023-03-18T08:54:28.132Z,100116.91
2023-03-18T08:56:55.343Z,100116.91
2023-03-18T08:59:22.232Z,100122.25
2023-03-18T09:01:49.134Z,100125.00
2023-03-18T09:04:16.028Z,100124.16
2023-03-18T09:06:42.971Z,100119.63
2023-03-18T09:09:09.624Z,100124.91
2023-03-18T09:11:36.362Z,100122.19
2023-03-18T09:14:02.928Z,100128.31
2023-03-18T09:16:29.686Z,100129.16
2023-03-18T09:18:56.208Z,100130.22
2023-03-18T09:21:25.557Z,100128.66
2023-03-18T09:23:53.237Z,100128.63
2023-03-18T09:26:21.252Z,100134.78
2023-03-18T09:28:48.406Z,100134.53
2023-03-18T09:31:17.636Z,100135.22
2023-03-18T09:33:44.279Z,100127.75
2023-03-18T09:36:10.949Z,100130.06
2023-03-18T09:38:37.440Z,100140.69
2023-03-18T09:41:09.837Z,100143.03
2023-03-18T09:44:04.290Z,100147.25
2023-03-18T09:47:08.471Z,100142.59
2023-03-18T09:49:44.691Z,100139.19
2023-03-18T09:52:18.243Z,100146.50
2023-03-18T09:54:57.641Z,100149.19
2023-03-18T09:57:29.948Z,100156.47
2023-03-18T10:00:15.916Z,100157.69
2023-03-18T10:03:22.874Z,100157.78
2023-03-18T10:05:56.754Z,100161.38
2023-03-18T10:08:45.259Z,100153.50
2023-03-18T10:11:21.999Z,100154.41
2023-03-18T10:13:57.829Z,100159.66
2023-03-18T10:16:29.985Z,100156.09
2023-03-18T10:18:57.309Z,100153.28
2023-03-18T10:21:48.011Z,100151.47
2023-03-18T10:24:33.949Z,100151.78
2023-03-18T10:27:13.724Z,100162.63
2023-03-18T10:30:04.187Z,100156.44
2023-03-18T10:32:50.050Z,100164.41
2023-03-18T10:35:25.978Z,100165.97
2023-03-18T10:37:56.098Z,100156.28
2023-03-18T10:40:24.487Z,100168.72
2023-03-18T10:42:53.944Z,100168.75
2023-03-18T10:45:30.077Z,100166.00
2023-03-18T10:48:05.990Z,100168.50
2023-03-18T10:50:39.037Z,100162.16
2023-03-18T10:53:27.175Z,100165.38
2023-03-18T10:56:14.653Z,100163.25
2023-03-18T10:58:42.424Z,100159.41
2023-03-18T11:01:17.156Z,100165.28
2023-03-18T11:03:54.723Z,100159.69
2023-03-18T11:06:39.497Z,100173.00
2023-03-18T11:09:10.295Z,100165.13
2023-03-18T11:11:40.981Z,100160.50
2023-03-18T11:14:17.386Z,100164.78
2023-03-18T11:16:57.587Z,100168.88
2023-03-18T11:19:30.265Z,100164.25
2023-03-18T11:22:15.216Z,100166.91
2023-03-18T11:24:45.220Z,100169.84
2023-03-18T11:27:24.715Z,100166.72
2023-03-18T11:30:00.510Z,100173.06
2023-03-18T11:32:34.052Z,100187.03
2023-03-18T11:35:02.779Z,100178.00
2023-03-18T11:37:34.595Z,100180.78
2023-03-18T11:40:23.637Z,100185.28
2023-03-18T11:42:57.758Z,100180.00
2023-03-18T11:45:34.237Z,100165.81
2023-03-18T11:48:02.859Z,100170.25
2023-03-18T11:50:46.112Z,100161.25
2023-03-18T11:53:22.491Z,100169.16
2023-03-18T11:56:06.918Z,100178.06
2023-03-18T11:58:55.337Z,100174.44
2023-03-18T12:01:43.086Z,100180.53
2023-03-18T12:04:44.911Z,100173.47
2023-03-18T12:07:30.574Z,100169.97
2023-03-18T12:10:22.449Z,100170.97
2023-03-18T12:13:02.120Z,100169.13
2023-03-18T12:16:03.832Z,100171.75
2023-03-18T12:18:57.870Z,100168.97
2023-03-18T12:21:42.991Z,100175.81
2023-03-18T12:24:27.517Z,100170.41
2023-03-18T12:27:07.054Z,100162.38
2023-03-18T12:29:43.509Z,100169.34
2023-03-18T12:32:25.224Z,100164.78
2023-03-18T12:35:05.785Z,100165.56
2023-03-18T12:37:50.802Z,100169.91
2023-03-18T12:40:34.703Z,100168.91
2023-03-18T12:43:16.809Z,100166.38
2023-03-18T12:45:47.985Z,100169.09
2023-03-18T12:48:18.356Z,100168.91
2023-03-18T12:50:56.315Z,100159.81
2023-03-18T12:53:35.848Z,100160.66
2023-03-18T12:56:12.452Z,100157.91
2023-03-18T12:58:46.276Z,100156.03
2023-03-18T13:01:31.427Z,100155.19
2023-03-18T13:04:05.240Z,100153.56
2023-03-18T13:06:51.607Z,100156.25
2023-03-18T13:09:48.911Z,100155.91
2023-03-18T13:12:29.193Z,100165.63
2023-03-18T13:15:17.669Z,100153.31
2023-03-18T13:17:49.320Z,100150.34
2023-03-18T13:20:46.884Z,100151.28
2023-03-18T13:23:36.769Z,100158.59
2023-03-18T13:26:51.660Z,100150.56
2023-03-18T13:29:47.104Z,100157.69
2023-03-18T13:32:47.939Z,100153.03
2023-03-18T13:35:23.499Z,100152.97
2023-03-18T13:38:10.201Z,100156.53
2023-03-18T13:41:17.701Z,100155.66
2023-03-18T13:43:49.291Z,100154.84
2023-03-18T13:46:25.295Z,100156.72
2023-03-18T13:49:01.211Z,100152.34
2023-03-18T13:51:28.622Z,100161.13
2023-03-18T13:54:05.248Z,100166.56
2023-03-18T13:56:54.265Z,100156.53
2023-03-18T13:59:32.944Z,100157.31
2023-03-18T14:02:33.288Z,100160.66
2023-03-18T14:05:00.921Z,100157.03
2023-03-18T14:07:33.305Z,100161.41
2023-03-18T14:10:15.202Z,100163.91
2023-03-18T14:12:50.223Z,100160.03
2023-03-18T14:15:41.969Z,100158.75
2023-03-18T14:18:27.139Z,100147.84
2023-03-18T14:20:58.858Z,100159.28
2023-03-18T14:23:25.266Z,100150.56
2023-03-18T14:26:02.388Z,100149.00
2023-03-18T14:28:35.590Z,100149.09
2023-03-18T14:31:20.723Z,100151.25
2023-03-18T14:33:52.066Z,100153.22
2023-03-18T14:36:46.599Z,100149.69
2023-03-18T14:39:25.589Z,100145.38
2023-03-18T14:41:56.942Z,100149.06
2023-03-18T14:44:45.164Z,100146.50
2023-03-18T14:47:38.291Z,100150.09
2023-03-18T14:50:30.748Z,100150.97
2023-03-18T14:53:22.891Z,100151.19
2023-03-18T14:55:57.129Z,100149.53
2023-03-18T14:58:25.948Z,100145.97
2023-03-18T15:01:22.448Z,100144.97
2023-03-18T15:03:49.951Z,100146.78
2023-03-18T15:06:26.559Z,100134.34
2023-03-18T15:08:59.119Z,100137.81
2023-03-18T15:11:25.748Z,100139.50
2023-03-18T15:14:00.567Z,100140.22
2023-03-18T15:16:30.634Z,100141.00
2023-03-18T15:18:57.862Z,100144.50
2023-03-18T15:21:31.440Z,100137.25
2023-03-18T15:24:07.603Z,100135.22
2023-03-18T15:26:37.768Z,100140.34
2023-03-18T15:29:31.556Z,100149.22
2023-03-18T15:32:10.460Z,100145.81
2023-03-18T15:34:41.417Z,100140.53
2023-03-18T15:37:42.374Z,100150.50
2023-03-18T15:40:26.456Z,100143.44
2023-03-18T15:43:05.848Z,100141.75
2023-03-18T15:45:34.097Z,100150.81
2023-03-18T15:48:18.150Z,100139.28
2023-03-18T15:50:56.211Z,100145.66
2023-03-18T15:53:44.806Z,100144.13
2023-03-18T15:56:19.645Z,100148.72
2023-03-18T15:58:47.161Z,100145.28
2023-03-18T16:01:17.649Z,100148.97
2023-03-18T16:03:46.564Z,100145.59
2023-03-18T16:06:14.895Z,100149.28
2023-03-18T16:08:41.949Z,100148.47
2023-03-18T16:11:12.263Z,100155.72
2023-03-18T16:13:39.451Z,100152.31
2023-03-18T16:16:06.711Z,100154.28
2023-03-18T16:18:37.354Z,100150.94
2023-03-18T16:21:04.150Z,100146.72
2023-03-18T16:23:30.947Z,100154.00
2023-03-18T16:25:59.056Z,100143.50
2023-03-18T16:28:28.183Z,100148.03
2023-03-18T16:30:56.255Z,100148.91
2023-03-18T16:33:23.939Z,100154.50
2023-03-18T16:35:59.158Z,100146.28
2023-03-18T16:38:28.588Z,100155.22
2023-03-18T16:40:56.318Z,100161.63
2023-03-18T16:43:30.681Z,100160.25
2023-03-18T16:46:06.018Z,100161.22
2023-03-18T16:48:33.093Z,100164.44
2023-03-18T16:51:03.047Z,100161.66
2023-03-18T16:53:31.365Z,100164.97
2023-03-18T16:56:09.084Z,100161.16
2023-03-18T16:58:37.472Z,100163.38
2023-03-18T17:01:16.479Z,100170.16
2023-03-18T17:03:44.728Z,100168.00
2023-03-18T17:06:13.294Z,100174.78
2023-03-18T17:08:40.863Z,100176.19
2023-03-18T17:11:07.580Z,100175.81
2023-03-18T17:13:37.767Z,100177.22
2023-03-18T17:16:04.894Z,100178.59
2023-03-18T17:18:33.184Z,100179.94
2023-03-18T17:20:59.776Z,100184.84
2023-03-18T17:23:28.504Z,100186.13
2023-03-18T17:25:59.228Z,100194.66
2023-03-18T17:28:37.134Z,100186.16
2023-03-18T17:31:04.336Z,100191.88
2023-03-18T17:33:33.434Z,100194.94
2023-03-18T17:36:01.831Z,100192.56
2023-03-18T17:38:28.555Z,100198.22
2023-03-18T17:40:55.582Z,100196.72
2023-03-18T17:43:36.066Z,100199.66
2023-03-18T17:46:03.772Z,100201.72
2023-03-18T17:48:35.023Z,100201.00
2023-03-18T17:51:09.179Z,100202.09
2023-03-18T17:53:48.075Z,100204.06
2023-03-18T17:56:17.558Z,100203.31
2023-03-18T17:58:46.785Z,100199.03
2023-03-18T18:01:33.857Z,100198.31
2023-03-18T18:04:00.348Z,100192.25
2023-03-18T18:06:29.527Z,100191.47
2023-03-18T18:09:01.154Z,100188.03
2023-03-18T18:11:31.435Z,100191.63
2023-03-18T18:14:04.443Z,100189.09
2023-03-18T18:16:31.022Z,100196.25
2023-03-18T18:18:57.603Z,100188.34
2023-03-18T18:21:25.506Z,100186.63
2023-03-18T18:23:52.442Z,100195.56
2023-03-18T18:26:22.977Z,100188.50
2023-03-18T18:28:52.070Z,100197.44
2023-03-18T18:31:21.279Z,100203.66
2023-03-18T18:33:50.132Z,100196.59
2023-03-18T18:36:18.169Z,100201.09
2023-03-18T18:38:48.673Z,100200.22
2023-03-18T18:41:15.213Z,100200.19
2023-03-18T18:43:41.740Z,100202.00
2023-03-18T18:46:15.684Z,100209.97
2023-03-18T18:48:49.053Z,100206.44
2023-03-18T18:51:18.588Z,100208.25
2023-03-18T18:53:46.155Z,100217.97
2023-03-18T18:56:23.917Z,100222.41
2023-03-18T18:58:52.105Z,100210.03
2023-03-18T19:01:23.796Z,100217.09
2023-03-18T19:03:50.606Z,100219.75
2023-03-18T19:06:27.155Z,100215.34
2023-03-18T19:08:56.262Z,100211.78
2023-03-18T19:11:26.611Z,100214.41
2023-03-18T19:13:56.294Z,100213.53
2023-03-18T19:16:30.975Z,100218.81
2023-03-18T19:19:01.640Z,100220.59
2023-03-18T19:21:29.122Z,100223.25
2023-03-18T19:23:58.078Z,100226.75
2023-03-18T19:26:29.669Z,100224.09
2023-03-18T19:28:59.266Z,100221.44
2023-03-18T19:31:30.984Z,100224.97
2023-03-18T19:34:00.227Z,100227.59
2023-03-18T19:36:41.666Z,100230.22
2023-03-18T19:39:18.720Z,100228.44
2023-03-18T19:41:52.338Z,100231.09
2023-03-18T19:44:23.151Z,100225.78
2023-03-18T19:46:53.093Z,100235.56
2023-03-18T19:49:29.574Z,100225.81
2023-03-18T19:51:56.350Z,100226.72
2023-03-18T19:54:23.210Z,100227.63
2023-03-18T19:56:58.507Z,100222.34
2023-03-18T19:59:38.258Z,100221.47
2023-03-18T20:02:23.055Z,100224.13
2023-03-18T20:04:55.269Z,100225.00
2023-03-18T20:07:23.999Z,100230.31
2023-03-18T20:09:50.878Z,100237.38
2023-03-18T20:12:24.310Z,100233.84
2023-03-18T20:14:51.709Z,100238.28
2023-03-18T20:17:27.729Z,100238.28
2023-03-18T20:19:54.454Z,100245.38
2023-03-18T20:22:26.487Z,100243.59
2023-03-18T20:24:56.323Z,100240.94
2023-03-18T20:27:23.978Z,100247.13
2023-03-18T20:29:50.978Z,100243.63
2023-03-18T20:32:18.337Z,100238.31
2023-03-18T20:34:46.523Z,100243.63
2023-03-18T20:37:22.129Z,100233.91
2023-03-18T20:39:49.650Z,100243.59
2023-03-18T20:42:17.404Z,100242.75
2023-03-18T20:44:46.182Z,100251.59
2023-03-18T20:47:14.514Z,100240.06
2023-03-18T20:49:45.146Z,100228.59
2023-03-18T20:52:26.952Z,100229.47
2023-03-18T20:55:00.492Z,100229.47
2023-03-18T20:57:27.432Z,100235.66
2023-03-18T20:59:55.912Z,100231.25
2023-03-18T21:02:30.952Z,100240.09
2023-03-18T21:04:58.784Z,100238.31
2023-03-18T21:07:26.587Z,100236.53
2023-03-18T21:09:53.791Z,100241.84
2023-03-18T21:12:22.009Z,100242.75
2023-03-18T21:14:49.735Z,100242.72
2023-03-18T21:17:22.573Z,100251.59
2023-03-18T21:19:50.754Z,100242.72
2023-03-18T21:22:21.736Z,100243.63
2023-03-18T21:24:49.295Z,100244.50
2023-03-18T21:27:27.129Z,100245.38
2023-03-18T21:29:55.609Z,100247.16
2023-03-18T21:32:28.629Z,100236.53
2023-03-18T21:34:55.713Z,100242.75
2023-03-18T21:37:25.796Z,100240.09
2023-03-18T21:39:54.166Z,100241.84
2023-03-18T21:42:24.607Z,100238.31
2023-03-18T21:44:51.959Z,100247.16
2023-03-18T21:47:21.481Z,100241.84
2023-03-18T21:49:49.184Z,100243.63
2023-03-18T21:52:40.929Z,100240.06
2023-03-18T21:55:12.574Z,100234.78
2023-03-18T21:57:39.818Z,100238.31
2023-03-18T22:00:07.075Z,100239.19
2023-03-18T22:02:38.090Z,100234.75
2023-03-18T22:05:11.752Z,100237.44
2023-03-18T22:07:38.249Z,100240.97
2023-03-18T22:10:07.117Z,100244.50
2023-03-18T22:12:35.869Z,100251.56
2023-03-18T22:15:02.877Z,100248.03
2023-03-18T22:17:32.447Z,100253.34
2023-03-18T22:20:01.438Z,100249.81
2023-03-18T22:22:36.965Z,100246.25
2023-03-18T22:25:04.375Z,100247.16
2023-03-18T22:27:32.067Z,100246.25
2023-03-18T22:30:00.697Z,100256.84
2023-03-18T22:32:36.651Z,100243.59
2023-03-18T22:35:12.080Z,100250.69
2023-03-18T22:37:39.246Z,100255.13
2023-03-18T22:40:06.574Z,100264.84
2023-03-18T22:42:33.235Z,100283.41
2023-03-18T22:44:59.733Z,100282.53
2023-03-18T22:47:26.687Z,100272.78
2023-03-18T22:49:53.521Z,100266.59
2023-03-18T22:52:25.826Z,100263.94
2023-03-18T22:54:55.787Z,100261.28
2023-03-18T22:57:26.251Z,100256.00
2023-03-18T22:59:54.237Z,100259.53
2023-03-18T23:02:25.152Z,100264.81
2023-03-18T23:04:52.813Z,100263.94
2023-03-18T23:07:32.239Z,100264.81
2023-03-18T23:10:01.182Z,100278.97
2023-03-18T23:12:30.153Z,100286.91
2023-03-18T23:14:57.258Z,100290.47
2023-03-18T23:17:26.701Z,100310.78
2023-03-18T23:19:54.191Z,100320.47
2023-03-18T23:22:30.310Z,100330.19
2023-03-18T23:24:57.764Z,100310.75
2023-03-18T23:27:26.256Z,100294.84
2023-03-18T23:29:53.511Z,100260.38
2023-03-18T23:32:21.002Z,100251.50
2023-03-18T23:34:47.735Z,100257.69
2023-03-18T23:37:15.583Z,100269.16
2023-03-18T23:39:46.405Z,100262.09
2023-03-18T23:42:15.591Z,100273.59
2023-03-18T23:44:42.913Z,100277.13
2023-03-18T23:47:11.282Z,100277.13
2023-03-18T23:49:38.364Z,100274.47
2023-03-18T23:52:07.369Z,100278.91
2023-03-18T23:54:34.655Z,100280.66
2023-03-18T23:57:02.052Z,100276.22
2023-03-18T23:59:31.702Z,100273.56
